Time;durP1;ratioP1;P1;durP2;ratioP2;P2;SDS_P1;SDS_P2;PMS_P1;PMS_P2;Temp;Humidity;BMP_temperature;BMP_pressure;BME280_temperature;BME280_humidity;BME280_pressure;Samples;Min_cycle;Max_cycle;Signal;HPM_P1;HPM_P2
2023/01/29 00:00:51;;;;;;;10.68;5.97;;;4.30;99.90;;;;;;5111100;27;20782;-77
2023/01/29 00:03:16;;;;;;;10.00;5.90;;;4.20;99.90;;;;;;5098564;28;20861;-77
2023/01/29 00:05:42;;;;;;;7.80;5.20;;;4.30;99.90;;;;;;5117955;27;20401;-77
2023/01/29 00:08:07;;;;;;;8.93;5.70;;;4.30;99.90;;;;;;5115454;27;20491;-77
2023/01/29 00:10:33;;;;;;;8.93;5.47;;;4.30;99.90;;;;;;5117120;27;20407;-78
2023/01/29 00:12:59;;;;;;;7.78;5.65;;;4.30;99.90;;;;;;5122226;27;20403;-78
2023/01/29 00:15:24;;;;;;;8.93;5.70;;;4.30;99.90;;;;;;5111398;27;20479;-79
2023/01/29 00:17:50;;;;;;;10.60;5.60;;;4.30;99.90;;;;;;5122712;27;20403;-78
2023/01/29 00:20:16;;;;;;;9.23;5.75;;;4.20;99.90;;;;;;5109469;27;20404;-78
2023/01/29 00:22:41;;;;;;;8.20;5.53;;;4.30;99.90;;;;;;5122739;27;20402;-78
2023/01/29 00:25:08;;;;;;;9.03;6.00;;;4.30;99.90;;;;;;5113783;27;20435;-78
2023/01/29 00:27:33;;;;;;;9.23;6.30;;;4.30;99.90;;;;;;5121422;27;20425;-78
2023/01/29 00:30:08;;;;;;;9.77;6.00;;;4.20;99.90;;;;;;5091074;27;20740;-78
2023/01/29 00:32:34;;;;;;;9.38;6.28;;;4.30;99.90;;;;;;5120985;27;20660;-78
2023/01/29 00:35:00;;;;;;;9.73;6.38;;;4.20;99.90;;;;;;5092977;27;20487;-78
2023/01/29 00:37:26;;;;;;;9.50;6.03;;;4.30;99.90;;;;;;5127481;27;20489;-77
2023/01/29 00:39:51;;;;;;;9.57;6.72;;;4.30;99.90;;;;;;5125130;27;20440;-77
2023/01/29 00:45:01;;;;;;;11.33;6.33;;;4.30;99.90;;;;;;5109333;27;20435;-77
2023/01/29 00:47:30;;;;;;;11.10;6.83;;;4.20;99.90;;;;;;5119027;27;20954;-77
2023/01/29 00:49:56;;;;;;;10.90;6.70;;;4.30;99.90;;;;;;5124250;27;21038;-77
2023/01/29 00:52:22;;;;;;;11.20;6.97;;;4.30;99.90;;;;;;5109770;27;20398;-77
2023/01/29 00:54:48;;;;;;;11.32;6.88;;;4.30;99.90;;;;;;5103160;28;20400;-77
2023/01/29 00:57:14;;;;;;;10.55;6.90;;;4.30;99.90;;;;;;5108572;28;20400;-77
2023/01/29 00:59:39;;;;;;;11.93;7.50;;;4.30;99.90;;;;;;5119619;27;20937;-77
2023/01/29 01:04:49;;;;;;;10.32;7.05;;;4.30;99.90;;;;;;5125605;27;20422;-77
2023/01/29 01:07:15;;;;;;;12.38;7.47;;;4.30;99.90;;;;;;5112422;27;20932;-77
2023/01/29 01:12:26;;;;;;;12.38;7.35;;;4.20;99.90;;;;;;5121202;27;20766;-77
2023/01/29 01:14:52;;;;;;;12.27;7.97;;;4.20;99.90;;;;;;5125077;27;20399;-77
2023/01/29 01:17:17;;;;;;;15.23;7.65;;;4.20;99.90;;;;;;5120075;27;21001;-77
2023/01/29 01:19:43;;;;;;;12.10;7.60;;;4.20;99.90;;;;;;5124192;27;20391;-77
2023/01/29 01:22:09;;;;;;;12.38;7.63;;;4.20;99.90;;;;;;5120045;27;20931;-77
2023/01/29 01:24:34;;;;;;;12.17;7.30;;;4.20;99.90;;;;;;5124023;27;20439;-77
2023/01/29 01:27:00;;;;;;;11.87;8.20;;;4.20;99.90;;;;;;5117000;27;20398;-77
2023/01/29 01:29:25;;;;;;;11.98;7.78;;;4.20;99.90;;;;;;5115986;27;20456;-78
2023/01/29 01:31:52;;;;;;;15.03;8.30;;;4.20;99.90;;;;;;5122342;27;20405;-77
2023/01/29 01:34:18;;;;;;;16.30;8.63;;;4.20;99.90;;;;;;5117409;27;20415;-78
2023/01/29 01:36:44;;;;;;;11.80;8.07;;;4.20;99.90;;;;;;5109182;27;20475;-77
2023/01/29 01:39:10;;;;;;;12.40;7.57;;;4.20;99.90;;;;;;5108703;27;20390;-77
2023/01/29 01:41:35;;;;;;;13.35;9.02;;;4.20;99.90;;;;;;5123439;27;20412;-77
2023/01/29 01:44:03;;;;;;;11.67;8.30;;;4.20;99.90;;;;;;5127345;27;20415;-77
2023/01/29 01:46:30;;;;;;;12.68;8.63;;;4.20;99.90;;;;;;5121416;27;20419;-77
2023/01/29 01:49:14;;;;;;;15.83;8.73;;;4.20;99.90;;;;;;5107780;28;20408;-77
2023/01/29 01:51:45;;;;;;;13.40;9.13;;;4.20;99.90;;;;;;5123659;27;20461;-77
2023/01/29 01:54:31;;;;;;;15.85;8.88;;;4.20;99.90;;;;;;5124041;27;20391;-77
2023/01/29 01:57:08;;;;;;;13.10;8.95;;;4.20;99.90;;;;;;5113738;27;20409;-77
2023/01/29 01:59:37;;;;;;;15.05;8.85;;;4.20;99.90;;;;;;5117841;27;20408;-77
2023/01/29 02:10:19;;;;;;;14.20;8.95;;;4.20;99.90;;;;;;5108439;27;20414;-78
2023/01/29 02:12:45;;;;;;;16.20;10.30;;;4.20;99.90;;;;;;5112693;27;20490;-78
2023/01/29 02:15:11;;;;;;;17.40;9.70;;;4.20;99.90;;;;;;5102981;28;20961;-79
2023/01/29 02:17:37;;;;;;;13.68;9.60;;;4.20;99.90;;;;;;5118148;27;20403;-78
2023/01/29 02:20:27;;;;;;;15.13;10.48;;;4.20;99.90;;;;;;5108901;28;20396;-78
2023/01/29 02:22:54;;;;;;;15.53;10.43;;;4.30;99.90;;;;;;5089591;28;20487;-79
2023/01/29 02:25:41;;;;;;;17.90;11.20;;;4.20;99.90;;;;;;5110427;28;20930;-79
2023/01/29 02:28:42;;;;;;;15.75;10.23;;;4.20;99.90;;;;;;5112217;28;20420;-78
2023/01/29 02:31:33;;;;;;;16.73;10.80;;;4.20;99.90;;;;;;5118808;28;20991;-78
2023/01/29 02:34:10;;;;;;;17.10;10.70;;;4.20;99.90;;;;;;5109024;28;20411;-78
2023/01/29 02:37:02;;;;;;;18.05;11.07;;;4.20;99.90;;;;;;5109652;28;20415;-78
2023/01/29 02:39:50;;;;;;;17.88;11.25;;;4.20;99.90;;;;;;5118363;28;20410;-79
2023/01/29 02:42:36;;;;;;;17.27;11.25;;;4.20;99.90;;;;;;5109891;27;20398;-78
2023/01/29 02:45:26;;;;;;;18.33;11.68;;;4.20;99.90;;;;;;5140130;27;20473;-78
2023/01/29 02:47:57;;;;;;;18.75;11.88;;;4.20;99.90;;;;;;5100040;28;20463;-79
2023/01/29 02:50:41;;;;;;;17.15;12.25;;;4.20;99.90;;;;;;5112448;27;20412;-78
2023/01/29 02:53:17;;;;;;;18.52;12.10;;;4.20;99.90;;;;;;5116085;28;20784;-77
2023/01/29 02:55:58;;;;;;;19.02;12.52;;;4.20;99.90;;;;;;5099895;27;20479;-78
2023/01/29 02:58:49;;;;;;;20.35;12.82;;;4.20;99.90;;;;;;5092634;28;20444;-78
2023/01/29 03:01:43;;;;;;;20.00;13.02;;;4.20;99.90;;;;;;5120320;27;20412;-79
2023/01/29 03:04:14;;;;;;;18.65;12.88;;;4.20;99.90;;;;;;5119099;27;20508;-78
2023/01/29 03:07:06;;;;;;;19.40;13.25;;;4.20;99.90;;;;;;5109440;27;20410;-78
2023/01/29 03:09:41;;;;;;;18.25;13.07;;;4.10;99.90;;;;;;5124051;27;20405;-78
2023/01/29 03:12:32;;;;;;;21.85;13.35;;;4.20;99.90;;;;;;5110850;27;20508;-78
2023/01/29 03:15:11;;;;;;;21.65;14.45;;;4.10;99.90;;;;;;5121674;27;20407;-79
2023/01/29 03:17:52;;;;;;;24.05;14.23;;;4.10;99.90;;;;;;5107733;27;20405;-79
2023/01/29 03:20:24;;;;;;;21.50;14.50;;;4.20;99.90;;;;;;5102677;27;20403;-78
2023/01/29 03:22:55;;;;;;;24.25;15.25;;;4.20;99.90;;;;;;5126771;27;20494;-78
2023/01/29 03:33:51;;;;;;;25.13;16.60;;;4.20;99.90;;;;;;5129787;27;20397;-78
2023/01/29 03:36:24;;;;;;;27.27;17.45;;;4.20;99.90;;;;;;5142249;27;20394;-78
2023/01/29 03:38:49;;;;;;;25.08;17.13;;;4.10;99.90;;;;;;5113750;27;20430;-78
2023/01/29 03:41:23;;;;;;;25.13;17.40;;;4.20;99.90;;;;;;5123277;27;20936;-78
2023/01/29 03:44:08;;;;;;;27.40;17.23;;;4.10;99.90;;;;;;5120530;27;20430;-78
2023/01/29 03:47:03;;;;;;;25.33;17.33;;;4.20;99.90;;;;;;5112657;27;20401;-78
2023/01/29 03:49:34;;;;;;;26.70;17.37;;;4.20;99.90;;;;;;5112910;27;20403;-78
2023/01/29 03:52:18;;;;;;;27.27;18.83;;;4.20;99.90;;;;;;5112852;27;20472;-79
2023/01/29 03:55:15;;;;;;;27.70;18.65;;;4.10;99.90;;;;;;5113865;27;20409;-78
2023/01/29 03:58:11;;;;;;;27.73;18.92;;;4.20;99.90;;;;;;5122728;27;20401;-78
2023/01/29 04:00:58;;;;;;;29.90;19.70;;;4.20;99.90;;;;;;5108800;27;20939;-78
2023/01/29 04:03:47;;;;;;;31.45;20.58;;;4.20;99.90;;;;;;5142245;27;20751;-78
2023/01/29 04:06:21;;;;;;;30.10;20.65;;;4.20;99.90;;;;;;5107422;27;20944;-78
2023/01/29 04:09:11;;;;;;;31.50;20.98;;;4.20;99.90;;;;;;5116397;27;20435;-78
2023/01/29 04:11:43;;;;;;;30.70;21.23;;;4.20;99.90;;;;;;5092530;28;20408;-78
2023/01/29 04:14:09;;;;;;;32.22;21.60;;;4.20;99.90;;;;;;5113528;27;20405;-78
2023/01/29 04:16:38;;;;;;;30.58;21.10;;;4.20;99.90;;;;;;5097808;27;20405;-78
2023/01/29 04:19:04;;;;;;;31.48;21.30;;;4.20;99.90;;;;;;5114401;27;20397;-78
2023/01/29 04:21:36;;;;;;;33.95;21.58;;;4.20;99.90;;;;;;5125718;27;20741;-78
2023/01/29 04:24:02;;;;;;;36.17;22.35;;;4.20;99.90;;;;;;5124954;27;20860;-78
2023/01/29 04:26:45;;;;;;;35.05;22.25;;;4.20;99.90;;;;;;5118389;27;20553;-78
2023/01/29 04:29:20;;;;;;;34.50;22.50;;;4.20;99.90;;;;;;5128019;27;20422;-78
2023/01/29 04:32:24;;;;;;;34.22;22.55;;;4.20;99.90;;;;;;5121328;27;20501;-78
2023/01/29 04:35:11;;;;;;;35.90;24.00;;;4.20;99.90;;;;;;5091842;27;21168;-78
2023/01/29 04:38:02;;;;;;;34.88;23.35;;;4.20;99.90;;;;;;5109087;27;20409;-78
2023/01/29 04:40:32;;;;;;;40.80;25.27;;;4.20;99.90;;;;;;5117336;27;20902;-78
2023/01/29 04:43:13;;;;;;;43.57;26.27;;;4.20;99.90;;;;;;5111852;27;20410;-78
2023/01/29 04:46:02;;;;;;;45.03;27.30;;;4.20;99.90;;;;;;5123503;27;20425;-78
2023/01/29 04:48:44;;;;;;;50.00;28.83;;;4.20;99.90;;;;;;5122497;27;20817;-78
2023/01/29 04:51:23;;;;;;;54.50;29.67;;;4.20;99.90;;;;;;5128592;27;20393;-78
2023/01/29 04:54:01;;;;;;;54.20;30.50;;;4.20;99.90;;;;;;5124402;27;20423;-78
2023/01/29 04:56:32;;;;;;;58.10;30.87;;;4.20;99.90;;;;;;5127353;27;20456;-79
2023/01/29 04:59:03;;;;;;;55.47;30.58;;;4.20;99.90;;;;;;5117033;27;20397;-78
2023/01/29 05:01:32;;;;;;;60.45;31.08;;;4.20;99.90;;;;;;5143497;27;20403;-78
2023/01/29 05:04:01;;;;;;;61.97;31.58;;;4.20;99.90;;;;;;5136486;27;20424;-78
2023/01/29 05:06:29;;;;;;;61.63;31.88;;;4.20;99.90;;;;;;5142293;27;20395;-78
2023/01/29 05:08:56;;;;;;;63.60;31.35;;;4.20;99.90;;;;;;5110258;27;20401;-78
2023/01/29 05:11:23;;;;;;;65.53;31.90;;;4.20;99.90;;;;;;5106886;27;20406;-78
2023/01/29 05:13:49;;;;;;;63.72;31.83;;;4.20;99.90;;;;;;5109293;27;20406;-78
2023/01/29 05:16:20;;;;;;;63.67;30.00;;;4.20;99.90;;;;;;5113505;27;20399;-78
2023/01/29 05:18:46;;;;;;;66.07;32.07;;;4.20;99.90;;;;;;5129500;27;20455;-78
2023/01/29 05:21:12;;;;;;;68.57;31.38;;;4.10;99.90;;;;;;5112741;27;20401;-78
2023/01/29 05:23:38;;;;;;;68.40;32.28;;;4.20;99.90;;;;;;5129322;27;20423;-78
2023/01/29 05:26:04;;;;;;;64.83;31.17;;;4.10;99.90;;;;;;5127112;27;20398;-78
2023/01/29 05:28:29;;;;;;;66.45;30.85;;;4.10;99.90;;;;;;5111149;27;20962;-78
2023/01/29 05:30:56;;;;;;;61.88;29.65;;;4.10;99.90;;;;;;5113317;27;20402;-78
2023/01/29 05:33:24;;;;;;;64.53;30.92;;;4.10;99.90;;;;;;5108906;27;20390;-78
2023/01/29 05:35:49;;;;;;;62.90;30.85;;;4.10;99.90;;;;;;5121930;27;20448;-78
2023/01/29 05:38:16;;;;;;;64.85;31.80;;;4.10;99.90;;;;;;5119720;27;20401;-78
2023/01/29 05:40:42;;;;;;;61.05;30.27;;;4.10;99.90;;;;;;5114066;27;20402;-78
2023/01/29 05:43:19;;;;;;;59.20;30.35;;;4.10;99.90;;;;;;5119329;27;20406;-77
2023/01/29 05:45:59;;;;;;;57.72;28.70;;;4.10;99.90;;;;;;5099614;27;20411;-78
2023/01/29 05:48:27;;;;;;;57.97;29.45;;;4.10;99.90;;;;;;5120383;27;20446;-78
2023/01/29 05:50:53;;;;;;;54.13;29.17;;;4.10;99.90;;;;;;5110570;27;20405;-79
2023/01/29 05:53:18;;;;;;;54.50;28.10;;;4.10;99.90;;;;;;5120598;27;20393;-78
2023/01/29 05:55:46;;;;;;;52.50;28.50;;;4.10;99.90;;;;;;5139803;27;21296;-78
2023/01/29 05:58:12;;;;;;;50.33;27.25;;;4.10;99.90;;;;;;5118280;27;20408;-78
2023/01/29 06:00:38;;;;;;;50.22;27.88;;;4.10;99.90;;;;;;5120941;27;20399;-78
2023/01/29 06:03:03;;;;;;;46.87;26.50;;;4.10;99.90;;;;;;5088204;27;20430;-78
2023/01/29 06:05:29;;;;;;;52.90;27.57;;;4.10;99.90;;;;;;5111107;27;20402;-78
2023/01/29 06:07:55;;;;;;;48.75;26.83;;;4.10;99.90;;;;;;5116738;27;20401;-78
2023/01/29 06:10:20;;;;;;;52.57;26.80;;;4.10;99.90;;;;;;5147209;27;20388;-78
2023/01/29 06:12:46;;;;;;;54.33;28.58;;;4.10;99.90;;;;;;5097958;28;20760;-78
2023/01/29 06:15:14;;;;;;;50.37;27.60;;;4.10;99.90;;;;;;5109236;27;20406;-78
2023/01/29 06:17:40;;;;;;;51.97;27.73;;;4.10;99.90;;;;;;5093429;27;20414;-78
2023/01/29 06:20:07;;;;;;;51.42;27.63;;;4.10;99.90;;;;;;5101953;27;20424;-79
2023/01/29 06:22:33;;;;;;;52.70;27.00;;;4.10;99.90;;;;;;5112255;27;20401;-78
2023/01/29 06:24:58;;;;;;;50.45;26.45;;;4.10;99.90;;;;;;5118525;28;20445;-78
2023/01/29 06:27:24;;;;;;;46.25;26.15;;;4.10;99.90;;;;;;5123147;27;20447;-78
2023/01/29 06:29:49;;;;;;;47.10;24.77;;;4.10;99.90;;;;;;5121832;27;20496;-78
2023/01/29 06:32:15;;;;;;;45.30;25.03;;;4.10;99.90;;;;;;5112241;28;20398;-78
2023/01/29 06:34:41;;;;;;;42.97;24.48;;;4.10;99.90;;;;;;5121501;27;20428;-78
2023/01/29 06:37:06;;;;;;;42.90;24.80;;;4.10;99.90;;;;;;5112127;28;20970;-78
2023/01/29 06:39:32;;;;;;;43.45;24.52;;;4.10;99.90;;;;;;5111206;27;20479;-78
2023/01/29 06:41:58;;;;;;;40.35;23.98;;;4.10;99.90;;;;;;5114598;27;20446;-78
2023/01/29 06:44:24;;;;;;;41.53;24.30;;;4.10;99.90;;;;;;5132565;27;20539;-78
2023/01/29 06:46:49;;;;;;;42.67;23.80;;;4.10;99.90;;;;;;5096855;27;20469;-77
2023/01/29 06:49:15;;;;;;;39.70;23.20;;;4.10;99.90;;;;;;5131427;27;20401;-78
2023/01/29 06:51:41;;;;;;;41.30;23.30;;;4.10;99.90;;;;;;5134558;27;20481;-78
2023/01/29 06:54:08;;;;;;;38.57;23.90;;;4.10;99.90;;;;;;5151924;27;20898;-78
2023/01/29 06:56:33;;;;;;;39.28;22.42;;;4.10;99.90;;;;;;5133505;27;20453;-78
2023/01/29 06:58:59;;;;;;;37.92;23.17;;;4.10;99.90;;;;;;5128742;27;20402;-78
2023/01/29 07:01:25;;;;;;;37.28;24.20;;;4.10;99.90;;;;;;5080354;27;20481;-78
2023/01/29 07:03:51;;;;;;;41.27;24.07;;;4.10;99.90;;;;;;5126888;27;20422;-78
2023/01/29 07:06:17;;;;;;;38.15;23.60;;;4.10;99.90;;;;;;5114183;27;20429;-78
2023/01/29 07:08:42;;;;;;;40.47;25.73;;;4.10;99.90;;;;;;5113312;27;20402;-78
2023/01/29 07:11:08;;;;;;;40.77;25.47;;;4.20;99.90;;;;;;5103447;27;20407;-78
2023/01/29 07:13:34;;;;;;;41.92;25.27;;;4.10;99.90;;;;;;5123549;27;20429;-78
2023/01/29 07:16:01;;;;;;;43.00;26.85;;;4.10;99.90;;;;;;5107675;28;20439;-78
2023/01/29 07:18:27;;;;;;;47.17;27.70;;;4.20;99.90;;;;;;5105453;27;20394;-78
2023/01/29 07:20:54;;;;;;;44.88;28.52;;;4.20;99.90;;;;;;5102625;27;20407;-78
2023/01/29 07:23:20;;;;;;;48.38;29.85;;;4.20;99.90;;;;;;5106688;27;20395;-78
2023/01/29 07:25:45;;;;;;;46.33;28.77;;;4.20;99.90;;;;;;5096649;27;20402;-78
2023/01/29 07:28:11;;;;;;;48.65;30.33;;;4.20;99.90;;;;;;5113203;27;20402;-78
2023/01/29 07:30:37;;;;;;;47.55;29.48;;;4.20;99.90;;;;;;5096220;27;20394;-78
2023/01/29 07:33:04;;;;;;;45.03;29.13;;;4.20;99.90;;;;;;5113298;27;20395;-78
2023/01/29 07:35:30;;;;;;;48.47;29.77;;;4.20;99.90;;;;;;5096905;27;20444;-78
2023/01/29 07:37:56;;;;;;;46.70;29.67;;;4.20;99.90;;;;;;5096494;27;20434;-78
2023/01/29 07:40:21;;;;;;;48.87;29.37;;;4.20;99.90;;;;;;5131033;27;20401;-78
2023/01/29 07:42:47;;;;;;;42.90;28.17;;;4.20;99.90;;;;;;5118131;27;20406;-78
2023/01/29 07:45:13;;;;;;;44.78;28.42;;;4.30;99.90;;;;;;5129545;27;20417;-78
2023/01/29 07:47:39;;;;;;;42.33;27.23;;;4.30;99.90;;;;;;5112530;27;20399;-78
2023/01/29 07:50:05;;;;;;;38.33;26.40;;;4.30;99.90;;;;;;5111906;27;20486;-78
2023/01/29 07:52:32;;;;;;;39.53;27.90;;;4.30;99.90;;;;;;5111705;27;20402;-78
2023/01/29 07:54:58;;;;;;;40.30;26.90;;;4.30;99.90;;;;;;5112015;27;20446;-78
2023/01/29 07:57:24;;;;;;;43.07;27.63;;;4.30;99.90;;;;;;5111375;27;20414;-79
2023/01/29 07:59:50;;;;;;;38.97;26.60;;;4.30;99.90;;;;;;5112220;27;20427;-78
2023/01/29 08:02:15;;;;;;;40.15;27.15;;;4.30;99.90;;;;;;5111367;27;20938;-78
2023/01/29 08:04:41;;;;;;;40.37;27.33;;;4.40;99.90;;;;;;5095459;27;20800;-78
2023/01/29 08:07:08;;;;;;;39.88;27.38;;;4.40;99.90;;;;;;5128515;27;20908;-78
2023/01/29 08:09:34;;;;;;;37.78;26.08;;;4.40;99.90;;;;;;5094649;27;20409;-78
2023/01/29 08:12:00;;;;;;;41.22;27.60;;;4.40;99.90;;;;;;5111370;27;20398;-78
2023/01/29 08:14:26;;;;;;;39.13;26.95;;;4.40;99.90;;;;;;5107290;27;20473;-78
2023/01/29 08:16:51;;;;;;;41.55;28.33;;;4.40;99.90;;;;;;5094937;27;20398;-78
2023/01/29 08:19:17;;;;;;;40.30;27.63;;;4.40;99.90;;;;;;5111465;27;20405;-78
2023/01/29 08:21:43;;;;;;;40.80;28.33;;;4.50;99.90;;;;;;5097267;27;20387;-78
2023/01/29 08:24:08;;;;;;;42.87;29.53;;;4.40;99.90;;;;;;5111326;27;20498;-78
2023/01/29 08:26:34;;;;;;;43.10;28.70;;;4.50;99.90;;;;;;5116566;27;20445;-79
2023/01/29 08:28:59;;;;;;;44.42;28.70;;;4.50;99.90;;;;;;5131085;27;20426;-78
2023/01/29 08:31:25;;;;;;;41.83;30.00;;;4.50;99.90;;;;;;5116877;27;20806;-79
2023/01/29 08:33:53;;;;;;;42.85;29.67;;;4.50;99.90;;;;;;5118512;27;20905;-78
2023/01/29 08:36:19;;;;;;;44.67;29.40;;;4.50;99.90;;;;;;5117239;27;20916;-78
2023/01/29 08:38:45;;;;;;;44.30;30.23;;;4.50;99.90;;;;;;5130709;27;20494;-78
2023/01/29 08:41:10;;;;;;;45.53;31.20;;;4.50;99.90;;;;;;5101892;27;20417;-78
2023/01/29 08:43:37;;;;;;;43.17;29.90;;;4.50;99.90;;;;;;5117831;27;20426;-78
2023/01/29 08:46:04;;;;;;;42.60;29.70;;;4.50;99.90;;;;;;5128231;27;20759;-78
2023/01/29 08:48:29;;;;;;;43.72;30.40;;;4.50;99.90;;;;;;5148052;27;20396;-78
2023/01/29 08:51:00;;;;;;;39.87;29.40;;;4.50;99.90;;;;;;5115839;27;20750;-78
2023/01/29 08:53:26;;;;;;;41.60;29.15;;;4.50;99.90;;;;;;5116350;27;20411;-78
2023/01/29 08:55:52;;;;;;;44.28;30.92;;;4.60;99.90;;;;;;5108234;27;20406;-79
2023/01/29 08:58:18;;;;;;;48.13;31.02;;;4.60;99.90;;;;;;5092196;27;20395;-79
2023/01/29 09:00:43;;;;;;;49.17;31.63;;;4.60;99.90;;;;;;5111729;27;20674;-78
2023/01/29 09:03:09;;;;;;;47.60;32.40;;;4.60;99.90;;;;;;5091968;27;20765;-78
2023/01/29 09:05:36;;;;;;;53.03;33.00;;;4.50;99.90;;;;;;5105643;27;20431;-78
2023/01/29 09:08:03;;;;;;;51.60;33.70;;;4.50;99.90;;;;;;5112264;27;20490;-78
2023/01/29 09:10:29;;;;;;;55.45;34.67;;;4.50;99.90;;;;;;5111036;27;20454;-80
2023/01/29 09:12:54;;;;;;;55.75;34.10;;;4.50;99.90;;;;;;5109485;27;20406;-79
2023/01/29 09:15:20;;;;;;;55.07;35.33;;;4.50;99.90;;;;;;5091988;27;20414;-79
2023/01/29 09:17:47;;;;;;;53.37;35.23;;;4.50;99.90;;;;;;5130320;27;20431;-79
2023/01/29 09:20:13;;;;;;;55.07;34.87;;;4.60;99.90;;;;;;5110248;27;20406;-79
2023/01/29 09:22:39;;;;;;;57.70;37.03;;;4.60;99.90;;;;;;5108333;27;20405;-79
2023/01/29 09:25:05;;;;;;;56.72;35.90;;;4.60;99.90;;;;;;5095533;27;20422;-79
2023/01/29 09:27:30;;;;;;;52.30;34.75;;;4.60;99.90;;;;;;5107836;27;20418;-78
2023/01/29 09:29:56;;;;;;;54.38;34.67;;;4.70;99.90;;;;;;5112080;27;20453;-78
2023/01/29 09:32:22;;;;;;;54.23;34.30;;;4.70;99.90;;;;;;5109067;27;20406;-78
2023/01/29 09:34:47;;;;;;;52.90;34.78;;;4.70;99.90;;;;;;5108303;27;20908;-78
2023/01/29 09:37:14;;;;;;;53.93;35.80;;;4.70;99.90;;;;;;5107978;27;20405;-78
2023/01/29 09:39:40;;;;;;;55.58;34.60;;;4.70;99.90;;;;;;5105628;27;20392;-79
2023/01/29 09:42:29;;;;;;;55.30;34.77;;;4.70;99.90;;;;;;5086300;27;20443;-80
2023/01/29 09:45:09;;;;;;;56.13;34.70;;;4.70;99.90;;;;;;5101366;27;20428;-79
2023/01/29 09:47:35;;;;;;;54.87;35.00;;;4.70;99.90;;;;;;5110231;27;20461;-79
2023/01/29 09:50:15;;;;;;;56.88;35.58;;;4.70;99.90;;;;;;5094021;27;20409;-79
2023/01/29 09:52:50;;;;;;;57.35;34.35;;;4.70;99.90;;;;;;5112420;27;20409;-79
2023/01/29 09:55:25;;;;;;;52.45;32.78;;;4.70;99.90;;;;;;5111134;27;20406;-79
2023/01/29 09:57:56;;;;;;;51.22;32.95;;;4.70;99.90;;;;;;5100036;27;20931;-79
2023/01/29 10:00:40;;;;;;;48.97;32.20;;;4.80;99.90;;;;;;5093697;27;20474;-79
2023/01/29 10:03:32;;;;;;;51.55;33.22;;;4.70;99.90;;;;;;5124240;27;20430;-79
2023/01/29 10:06:32;;;;;;;53.13;33.83;;;4.80;99.90;;;;;;5101778;28;20459;-79
2023/01/29 10:09:49;;;;;;;54.72;33.70;;;4.80;99.90;;;;;;5108263;27;20421;-79
2023/01/29 10:12:21;;;;;;;51.40;33.15;;;4.80;99.90;;;;;;5097292;27;20399;-79
2023/01/29 10:15:11;;;;;;;51.05;33.17;;;4.80;99.90;;;;;;5109672;27;20410;-79
2023/01/29 10:18:10;;;;;;;52.80;32.30;;;4.80;99.90;;;;;;5105939;27;20446;-79
2023/01/29 10:20:58;;;;;;;53.80;33.42;;;4.80;99.90;;;;;;5101883;28;20426;-78
2023/01/29 10:23:28;;;;;;;55.17;32.47;;;4.80;99.90;;;;;;5094799;27;20782;-79
2023/01/29 10:25:54;;;;;;;52.40;33.88;;;4.80;99.90;;;;;;5114028;28;20991;-79
2023/01/29 10:28:32;;;;;;;56.23;33.97;;;4.80;99.90;;;;;;5115630;27;20416;-79
2023/01/29 10:31:03;;;;;;;54.33;33.40;;;4.80;99.90;;;;;;5097807;27;20437;-79
2023/01/29 10:33:39;;;;;;;53.38;33.67;;;4.90;99.90;;;;;;5109045;28;20419;-79
2023/01/29 10:36:12;;;;;;;54.03;33.72;;;4.90;99.90;;;;;;5109351;28;20434;-79
2023/01/29 10:38:52;;;;;;;54.00;34.17;;;4.90;99.90;;;;;;5121413;27;20454;-79
2023/01/29 10:41:20;;;;;;;48.42;32.53;;;5.00;99.90;;;;;;5101307;27;20770;-79
2023/01/29 10:43:54;;;;;;;55.95;32.88;;;5.10;99.90;;;;;;5120201;27;20451;-79
2023/01/29 10:46:37;;;;;;;51.97;33.47;;;5.10;99.90;;;;;;5109574;28;20792;-79
2023/01/29 10:49:41;;;;;;;50.88;32.67;;;5.10;99.90;;;;;;5096437;27;20814;-79
2023/01/29 10:52:22;;;;;;;49.83;30.27;;;5.10;99.90;;;;;;5110778;27;20499;-79
2023/01/29 10:54:59;;;;;;;53.63;32.65;;;5.10;99.90;;;;;;5115962;27;20426;-79
2023/01/29 10:57:34;;;;;;;49.78;30.67;;;5.10;99.90;;;;;;5107785;28;20521;-79
2023/01/29 11:00:11;;;;;;;56.17;32.28;;;5.10;99.90;;;;;;5107477;28;20418;-79
2023/01/29 11:02:47;;;;;;;54.63;32.35;;;5.10;99.90;;;;;;5114072;27;20424;-78
2023/01/29 11:05:33;;;;;;;45.67;29.63;;;5.10;99.90;;;;;;5102546;27;20426;-79
2023/01/29 11:08:12;;;;;;;52.93;30.87;;;5.10;99.90;;;;;;5104221;28;20423;-79
2023/01/29 11:10:46;;;;;;;50.35;31.75;;;5.10;99.90;;;;;;5082236;28;20429;-79
2023/01/29 11:13:14;;;;;;;53.10;31.88;;;5.10;99.90;;;;;;5111459;27;20546;-79
2023/01/29 11:15:40;;;;;;;52.17;31.38;;;5.10;99.90;;;;;;5106557;28;20426;-78
2023/01/29 11:18:14;;;;;;;50.92;30.90;;;5.10;99.90;;;;;;5101619;27;20900;-79
2023/01/29 11:20:44;;;;;;;55.95;32.90;;;5.10;99.90;;;;;;5089062;28;20408;-78
2023/01/29 11:23:29;;;;;;;56.40;32.42;;;5.10;99.90;;;;;;5144763;27;20404;-79
2023/01/29 11:25:57;;;;;;;50.72;30.80;;;5.10;99.90;;;;;;5117147;27;20403;-79
2023/01/29 11:28:42;;;;;;;52.37;31.47;;;5.10;99.90;;;;;;5113476;27;20395;-79
2023/01/29 11:31:27;;;;;;;51.47;31.17;;;5.10;99.90;;;;;;5125949;27;20411;-79
2023/01/29 11:34:21;;;;;;;54.50;31.20;;;5.10;99.90;;;;;;5113615;27;20494;-79
2023/01/29 11:36:56;;;;;;;52.30;31.00;;;5.00;99.90;;;;;;5112951;27;20398;-78
2023/01/29 11:39:24;;;;;;;52.15;30.98;;;5.10;99.90;;;;;;5100618;27;20902;-79
2023/01/29 11:42:03;;;;;;;56.40;32.45;;;5.10;99.90;;;;;;5132441;27;20538;-78
2023/01/29 11:44:29;;;;;;;52.80;29.95;;;5.10;99.90;;;;;;5131866;27;20910;-79
2023/01/29 11:47:14;;;;;;;49.08;29.05;;;5.10;99.90;;;;;;5131775;27;20413;-79
2023/01/29 11:50:03;;;;;;;51.43;29.93;;;5.10;99.90;;;;;;5122305;27;20401;-79
2023/01/29 11:52:39;;;;;;;52.90;30.30;;;5.10;99.90;;;;;;5125525;27;20535;-79
2023/01/29 11:55:26;;;;;;;52.08;28.85;;;5.10;99.90;;;;;;5129990;27;20785;-79
2023/01/29 11:58:03;;;;;;;49.70;29.23;;;5.20;99.90;;;;;;5103981;27;20490;-78
2023/01/29 12:00:32;;;;;;;51.72;29.88;;;5.20;99.90;;;;;;5117655;27;20874;-78
2023/01/29 12:03:05;;;;;;;47.72;28.48;;;5.20;99.90;;;;;;5130070;27;20430;-79
2023/01/29 12:05:31;;;;;;;51.63;28.73;;;5.30;99.90;;;;;;5129960;27;20510;-78
2023/01/29 12:07:59;;;;;;;50.30;29.33;;;5.30;99.90;;;;;;5129917;27;20393;-79
2023/01/29 12:10:37;;;;;;;48.33;28.43;;;5.30;99.90;;;;;;5127754;27;20906;-79
2023/01/29 12:13:08;;;;;;;50.53;28.88;;;5.40;99.90;;;;;;5110335;27;20755;-78
2023/01/29 12:15:35;;;;;;;47.90;27.45;;;5.40;99.90;;;;;;5102448;27;20411;-78
2023/01/29 12:18:28;;;;;;;45.50;26.00;;;5.50;99.90;;;;;;5123159;27;20908;-78
2023/01/29 12:21:03;;;;;;;43.00;25.60;;;5.50;99.90;;;;;;5105550;27;20989;-78
2023/01/29 12:23:52;;;;;;;45.95;26.10;;;5.50;99.90;;;;;;5099630;27;20399;-78
2023/01/29 12:26:44;;;;;;;42.88;25.65;;;5.50;99.90;;;;;;5091646;28;20408;-79
2023/01/29 12:29:30;;;;;;;42.15;24.90;;;5.50;99.90;;;;;;5106795;27;20441;-79
2023/01/29 12:32:10;;;;;;;40.63;25.65;;;5.40;99.90;;;;;;5111993;27;20403;-79
2023/01/29 12:34:51;;;;;;;46.13;27.27;;;5.40;99.90;;;;;;5112043;27;20407;-78
2023/01/29 12:37:35;;;;;;;44.13;27.38;;;5.40;99.90;;;;;;5107527;27;20421;-79
2023/01/29 12:40:01;;;;;;;45.78;27.58;;;5.40;99.90;;;;;;5121934;27;20773;-79
2023/01/29 12:42:27;;;;;;;47.63;28.30;;;5.40;99.90;;;;;;5110620;27;20406;-79
2023/01/29 12:45:02;;;;;;;46.03;27.80;;;5.30;99.90;;;;;;5121047;27;20425;-79
2023/01/29 12:47:32;;;;;;;45.30;27.35;;;5.30;99.90;;;;;;5112628;27;20782;-79
2023/01/29 12:50:04;;;;;;;46.03;27.90;;;5.30;99.90;;;;;;5119087;27;20403;-79
2023/01/29 12:52:41;;;;;;;47.97;27.85;;;5.30;99.90;;;;;;5129235;27;20397;-78
2023/01/29 12:55:12;;;;;;;48.20;27.88;;;5.30;99.90;;;;;;5115988;27;20414;-78
2023/01/29 12:57:47;;;;;;;46.97;28.83;;;5.30;99.90;;;;;;5111316;27;20437;-79
2023/01/29 13:00:23;;;;;;;48.05;28.52;;;5.30;99.90;;;;;;5110951;27;20414;-79
2023/01/29 13:03:17;;;;;;;45.95;28.05;;;5.30;99.90;;;;;;5111377;27;20494;-79
2023/01/29 13:05:50;;;;;;;47.72;29.38;;;5.30;99.90;;;;;;5099111;27;20502;-79
2023/01/29 13:08:44;;;;;;;46.13;28.37;;;5.30;99.90;;;;;;5112786;27;20497;-79
2023/01/29 13:11:40;;;;;;;44.90;27.80;;;5.30;99.90;;;;;;5109912;27;20456;-79
2023/01/29 13:14:15;;;;;;;44.47;27.08;;;5.30;99.90;;;;;;5079623;27;20500;-79
2023/01/29 13:16:44;;;;;;;39.70;25.98;;;5.30;99.90;;;;;;5129260;27;20405;-79
2023/01/29 13:19:38;;;;;;;43.30;25.83;;;5.40;99.90;;;;;;5118171;27;20407;-79
2023/01/29 13:22:14;;;;;;;40.97;24.98;;;5.40;99.90;;;;;;5082251;27;20409;-78
2023/01/29 13:24:42;;;;;;;38.65;25.17;;;5.40;99.90;;;;;;5123402;27;20824;-79
2023/01/29 13:27:20;;;;;;;42.40;26.73;;;5.40;99.90;;;;;;5105151;27;20426;-79
2023/01/29 13:29:46;;;;;;;42.80;26.77;;;5.40;99.90;;;;;;5114938;27;20956;-78